Time;durP1;ratioP1;P1;durP2;ratioP2;P2;SDS_P1;SDS_P2;PMS_P1;PMS_P2;Temp;Humidity;BMP_temperature;BMP_pressure;BME280_temperature;BME280_humidity;BME280_pressure;Samples;Min_cycle;Max_cycle;Signal;HPM_P1;HPM_P2
2022/07/24 00:01:06;;;;;;;13.30;11.48;;;;;;;20.59;87.32;98798.06;1655453;86;25759;-59
2022/07/24 00:03:33;;;;;;;12.53;11.00;;;;;;;20.60;87.56;98802.44;1655396;86;25479;-60
2022/07/24 00:05:59;;;;;;;14.10;12.05;;;;;;;20.62;87.97;98793.12;1655516;86;28344;-60
2022/07/24 00:08:24;;;;;;;13.98;11.30;;;;;;;20.63;87.46;98796.93;1655412;86;25648;-61
2022/07/24 00:10:51;;;;;;;14.33;12.05;;;;;;;20.62;87.41;98796.73;1655596;86;25631;-61
2022/07/24 00:13:17;;;;;;;14.53;12.20;;;;;;;20.60;87.36;98800.47;1655530;86;26695;-60
2022/07/24 00:15:43;;;;;;;14.55;12.35;;;;;;;20.62;87.58;98803.69;1655508;86;25686;-61
2022/07/24 00:18:09;;;;;;;14.98;12.90;;;;;;;20.62;87.73;98816.22;1655240;86;27459;-60
2022/07/24 00:20:35;;;;;;;15.25;13.75;;;;;;;20.62;87.66;98815.41;1655158;86;25680;-60
2022/07/24 00:23:01;;;;;;;16.35;13.65;;;;;;;20.64;87.79;98815.84;1655652;86;25648;-58
2022/07/24 00:25:27;;;;;;;14.70;12.85;;;;;;;20.65;88.40;98816.04;1655703;86;25907;-58
2022/07/24 00:27:53;;;;;;;13.28;11.88;;;;;;;20.68;88.33;98816.09;1655210;86;25602;-58
2022/07/24 00:30:20;;;;;;;13.32;11.93;;;;;;;20.71;89.27;98815.11;1655127;86;27412;-58
2022/07/24 00:32:46;;;;;;;14.18;12.68;;;;;;;20.72;88.90;98814.73;1655308;86;25733;-59
2022/07/24 00:35:13;;;;;;;14.13;12.63;;;;;;;20.75;88.47;98810.41;1655588;86;25607;-58
2022/07/24 00:37:39;;;;;;;15.25;12.85;;;;;;;20.72;89.04;98812.55;1655207;86;25774;-58
2022/07/24 00:40:07;;;;;;;14.95;12.80;;;;;;;20.72;89.21;98812.55;1655709;86;25590;-60
2022/07/24 00:42:33;;;;;;;14.38;12.88;;;;;;;20.74;89.47;98812.96;1655459;86;27456;-58
2022/07/24 00:44:59;;;;;;;16.67;13.13;;;;;;;20.75;89.42;98815.36;1659113;86;25852;-57
2022/07/24 00:47:25;;;;;;;15.20;13.48;;;;;;;20.77;89.67;98813.59;1662824;86;25666;-59
2022/07/24 00:49:51;;;;;;;17.23;14.35;;;;;;;20.79;89.13;98820.98;1662693;86;25822;-57
2022/07/24 00:52:17;;;;;;;15.53;13.85;;;;;;;20.80;89.53;98814.23;1663003;86;25700;-58
2022/07/24 00:54:45;;;;;;;16.50;14.28;;;;;;;20.83;89.01;98819.63;1662500;86;27424;-57
2022/07/24 00:57:11;;;;;;;17.67;13.58;;;;;;;20.84;88.94;98816.45;1662675;86;25743;-58
2022/07/24 00:59:37;;;;;;;16.00;14.18;;;;;;;20.92;88.94;98822.95;1663088;86;25475;-57
2022/07/24 01:02:03;;;;;;;16.17;14.47;;;;;;;20.96;88.88;98823.00;1662726;86;25639;-57
2022/07/24 01:04:30;;;;;;;16.85;14.18;;;;;;;20.96;88.49;98821.02;1662594;86;25431;-57
2022/07/24 01:06:57;;;;;;;15.70;13.88;;;;;;;20.96;88.48;98825.78;1662860;86;26748;-57
2022/07/24 01:09:23;;;;;;;15.80;14.10;;;;;;;20.96;88.56;98827.17;1662663;86;25805;-56
2022/07/24 01:11:51;;;;;;;16.60;14.90;;;;;;;20.92;88.77;98827.94;1662900;86;25668;-57
2022/07/24 01:14:18;;;;;;;15.88;14.20;;;;;;;20.89;88.54;98825.88;1662475;86;26633;-58
2022/07/24 01:16:44;;;;;;;17.30;14.98;;;;;;;20.92;88.51;98824.34;1662537;86;25604;-57
2022/07/24 01:19:10;;;;;;;16.30;14.58;;;;;;;20.86;88.86;98823.85;1663033;86;27619;-57
2022/07/24 01:21:36;;;;;;;15.85;14.15;;;;;;;20.87;88.61;98826.06;1662403;86;27184;-57
2022/07/24 01:24:04;;;;;;;18.10;14.95;;;;;;;20.86;88.80;98823.04;1662847;86;25610;-57
2022/07/24 01:26:30;;;;;;;16.95;14.55;;;;;;;20.85;88.51;98823.66;1662536;86;25739;-58
2022/07/24 01:28:56;;;;;;;17.62;14.90;;;;;;;20.77;88.77;98814.98;1662846;86;25653;-58
2022/07/24 01:31:22;;;;;;;17.57;15.03;;;;;;;20.75;88.62;98819.54;1662925;86;27457;-57
2022/07/24 01:33:49;;;;;;;19.85;15.28;;;;;;;20.73;88.57;98820.53;1662791;86;25869;-59
2022/07/24 01:36:15;;;;;;;17.57;15.78;;;;;;;20.72;88.20;98818.91;1662892;86;25654;-59
2022/07/24 01:38:41;;;;;;;17.05;15.28;;;;;;;20.73;88.29;98819.72;1662826;86;25896;-57
2022/07/24 01:41:07;;;;;;;16.77;15.05;;;;;;;20.72;88.38;98819.52;1662426;86;25664;-58
2022/07/24 01:43:33;;;;;;;17.98;16.07;;;;;;;20.65;88.28;98824.39;1662980;86;27421;-59
2022/07/24 01:45:59;;;;;;;18.50;16.00;;;;;;;20.61;88.35;98817.98;1662382;86;25712;-57
2022/07/24 01:48:26;;;;;;;22.15;15.08;;;;;;;20.57;88.06;98817.92;1662500;86;25447;-58
2022/07/24 01:50:52;;;;;;;17.35;15.20;;;;;;;20.51;88.66;98820.25;1662431;86;25776;-57
2022/07/24 01:53:18;;;;;;;17.82;14.45;;;;;;;20.51;88.25;98822.22;1662429;86;25688;-58
2022/07/24 01:55:44;;;;;;;17.98;15.68;;;;;;;20.46;88.24;98820.56;1662819;86;27440;-58
2022/07/24 01:58:10;;;;;;;15.48;13.88;;;;;;;20.42;88.25;98825.29;1662395;86;25514;-57
2022/07/24 02:00:37;;;;;;;15.18;13.40;;;;;;;20.38;88.26;98825.84;1662954;86;25576;-57
2022/07/24 02:03:03;;;;;;;15.85;14.25;;;;;;;20.29;88.46;98821.34;1662876;86;25920;-57
2022/07/24 02:05:29;;;;;;;15.83;13.38;;;;;;;20.28;88.39;98825.31;1662968;86;25664;-57
2022/07/24 02:07:59;;;;;;;15.13;13.53;;;;;;;20.26;87.53;98824.09;1662641;86;26988;-57
2022/07/24 02:10:27;;;;;;;13.27;11.60;;;;;;;20.24;87.61;98827.25;1662650;86;25539;-58
2022/07/24 02:12:55;;;;;;;14.98;12.23;;;;;;;20.16;86.56;98825.52;1662702;86;25507;-57
2022/07/24 02:15:21;;;;;;;13.62;11.75;;;;;;;20.10;87.01;98822.27;1662774;86;25797;-57
2022/07/24 02:17:50;;;;;;;13.83;11.40;;;;;;;20.06;86.19;98818.61;1662887;86;25483;-58
2022/07/24 02:20:18;;;;;;;11.20;9.90;;;;;;;19.97;86.14;98827.80;1662740;86;27451;-59
2022/07/24 02:22:44;;;;;;;10.25;9.20;;;;;;;19.85;85.20;98826.00;1662393;86;26008;-57
2022/07/24 02:25:15;;;;;;;11.57;9.85;;;;;;;19.72;85.31;98830.39;1662794;86;25681;-60
2022/07/24 02:27:48;;;;;;;10.88;9.45;;;;;;;19.69;85.98;98831.14;1662687;86;27818;-57
2022/07/24 02:30:20;;;;;;;11.10;9.63;;;;;;;19.64;85.79;98837.00;1662846;86;25570;-57
2022/07/24 02:32:49;;;;;;;10.70;9.60;;;;;;;19.55;85.72;98839.42;1662729;86;27462;-57
2022/07/24 02:35:22;;;;;;;11.73;9.68;;;;;;;19.45;86.18;98835.87;1662556;86;25602;-58
2022/07/24 02:37:56;;;;;;;14.23;10.23;;;;;;;19.42;86.21;98833.84;1662469;86;25620;-58
2022/07/24 02:40:28;;;;;;;11.30;10.10;;;;;;;19.37;86.09;98838.33;1662726;86;25698;-58
2022/07/24 02:43:05;;;;;;;12.05;10.05;;;;;;;19.26;86.36;98832.57;1662732;86;25693;-57
2022/07/24 02:45:40;;;;;;;11.83;10.53;;;;;;;19.17;86.51;98832.20;1658178;86;26821;-57
2022/07/24 02:48:12;;;;;;;13.48;11.25;;;;;;;19.13;86.75;98831.34;1655494;86;25645;-59
2022/07/24 02:50:39;;;;;;;14.18;11.08;;;;;;;19.12;86.84;98840.04;1655584;86;25478;-57
2022/07/24 02:53:07;;;;;;;12.78;10.75;;;;;;;19.08;86.87;98836.37;1655592;86;25752;-59
2022/07/24 02:55:33;;;;;;;12.60;10.75;;;;;;;19.05;86.70;98844.83;1655641;86;25423;-58
2022/07/24 02:57:59;;;;;;;13.85;11.38;;;;;;;19.02;86.81;98846.95;1655687;86;27583;-58
2022/07/24 03:00:25;;;;;;;12.15;10.78;;;;;;;19.05;86.86;98838.70;1655508;86;25925;-57
2022/07/24 03:02:51;;;;;;;13.20;11.22;;;;;;;19.05;86.79;98848.99;1655271;86;25660;-57
2022/07/24 03:05:18;;;;;;;13.00;10.63;;;;;;;19.03;86.86;98849.36;1655355;86;26543;-59
2022/07/24 03:07:45;;;;;;;12.15;10.85;;;;;;;19.01;86.49;98848.13;1655400;86;25507;-57
2022/07/24 03:10:12;;;;;;;12.68;10.98;;;;;;;18.99;86.60;98852.66;1655225;86;27488;-57
2022/07/24 03:12:39;;;;;;;13.28;10.80;;;;;;;18.97;86.39;98845.88;1655603;86;25669;-57
2022/07/24 03:15:08;;;;;;;13.15;10.50;;;;;;;18.89;86.48;98849.09;1655637;86;25440;-59
2022/07/24 03:17:34;;;;;;;13.85;10.98;;;;;;;18.80;86.31;98850.09;1655501;86;25785;-58
2022/07/24 03:20:01;;;;;;;11.10;9.98;;;;;;;18.76;86.73;98858.95;1655631;86;25435;-58
2022/07/24 03:22:27;;;;;;;13.18;10.58;;;;;;;18.72;86.79;98855.30;1655478;86;28282;-57
2022/07/24 03:24:53;;;;;;;14.10;11.38;;;;;;;18.75;87.08;98867.06;1655366;86;25736;-58
2022/07/24 03:27:20;;;;;;;13.50;11.73;;;;;;;18.78;86.82;98869.69;1655339;86;25681;-58
2022/07/24 03:29:47;;;;;;;15.03;11.15;;;;;;;18.81;86.65;98869.77;1655452;86;25712;-58
2022/07/24 03:32:13;;;;;;;13.30;11.48;;;;;;;18.81;86.27;98868.38;1655523;86;26244;-59
2022/07/24 03:34:39;;;;;;;15.88;10.55;;;;;;;18.80;86.58;98868.14;1655427;86;27473;-59
2022/07/24 03:37:05;;;;;;;13.95;11.75;;;;;;;18.85;86.34;98867.66;1655363;86;25507;-59
2022/07/24 03:39:31;;;;;;;14.83;11.22;;;;;;;18.87;86.33;98875.02;1655866;86;25613;-59
2022/07/24 03:41:57;;;;;;;13.05;11.43;;;;;;;18.90;86.20;98876.48;1637438;86;25784;-57
2022/07/24 03:44:23;;;;;;;12.98;10.75;;;;;;;18.91;86.09;98876.70;1655282;86;25443;-59
2022/07/24 03:46:49;;;;;;;12.03;10.65;;;;;;;18.97;86.05;98875.03;1662080;86;27580;-60
2022/07/24 03:49:16;;;;;;;12.18;10.80;;;;;;;18.99;85.75;98880.43;1662588;86;25900;-58
2022/07/24 03:51:42;;;;;;;12.68;11.30;;;;;;;19.01;85.71;98882.84;1662823;86;25442;-58
2022/07/24 03:54:08;;;;;;;15.60;11.75;;;;;;;18.98;85.94;98879.41;1662773;86;25785;-57
2022/07/24 03:56:34;;;;;;;14.13;11.20;;;;;;;19.03;85.97;98884.08;1662810;86;25668;-59
2022/07/24 03:59:00;;;;;;;15.08;11.22;;;;;;;19.08;85.96;98877.45;1662691;86;27449;-59
2022/07/24 04:01:27;;;;;;;13.65;11.05;;;;;;;19.15;86.23;98887.91;1662488;86;25446;-60
2022/07/24 04:03:53;;;;;;;13.70;11.00;;;;;;;19.22;85.89;98884.46;1662984;86;25494;-59
2022/07/24 04:06:19;;;;;;;14.23;10.70;;;;;;;19.30;85.59;98883.44;1662764;86;26532;-60
2022/07/24 04:08:47;;;;;;;11.73;9.98;;;;;;;19.39;85.30;98894.31;1662555;86;25673;-58
2022/07/24 04:11:13;;;;;;;13.03;9.98;;;;;;;19.47;85.29;98884.95;1662448;86;25905;-58
2022/07/24 04:13:39;;;;;;;13.58;10.85;;;;;;;19.55;85.40;98888.67;1662597;86;25818;-60
2022/07/24 04:16:05;;;;;;;12.68;9.83;;;;;;;19.65;85.82;98888.63;1662802;86;25640;-60
2022/07/24 04:18:32;;;;;;;12.73;9.55;;;;;;;19.75;84.32;98894.18;1662929;86;25768;-61
2022/07/24 04:21:03;;;;;;;12.00;9.08;;;;;;;19.80;85.45;98897.45;1662575;86;25499;-60
2022/07/24 04:23:30;;;;;;;12.45;9.38;;;;;;;19.90;84.27;98895.22;1662816;86;28229;-61
2022/07/24 04:25:56;;;;;;;11.68;9.18;;;;;;;20.03;83.62;98902.23;1662358;86;25700;-60
2022/07/24 04:28:22;;;;;;;11.83;9.23;;;;;;;20.06;84.22;98902.87;1662521;86;25648;-57
2022/07/24 04:30:48;;;;;;;11.85;9.18;;;;;;;20.18;84.11;98905.25;1663034;86;25688;-60
2022/07/24 04:33:14;;;;;;;10.65;8.65;;;;;;;20.27;83.08;98904.37;1662687;86;25680;-60
2022/07/24 04:35:41;;;;;;;11.63;8.28;;;;;;;20.29;83.20;98908.99;1662761;86;27375;-61
2022/07/24 04:38:07;;;;;;;9.93;8.33;;;;;;;20.37;81.93;98912.69;1662534;86;25487;-58
2022/07/24 04:40:33;;;;;;;9.53;8.08;;;;;;;20.43;81.51;98919.55;1662788;86;25632;-58
2022/07/24 04:42:59;;;;;;;9.50;8.38;;;;;;;20.48;81.62;98923.18;1662539;86;25740;-57
2022/07/24 04:45:26;;;;;;;8.68;7.87;;;;;;;20.51;80.92;98924.63;1662848;86;25577;-57
2022/07/24 04:47:52;;;;;;;9.35;7.20;;;;;;;20.51;80.94;98927.42;1662899;86;27420;-61
2022/07/24 04:50:18;;;;;;;10.53;7.62;;;;;;;20.63;80.77;98929.75;1662435;86;25443;-57
2022/07/24 04:52:45;;;;;;;7.92;7.12;;;;;;;20.77;80.91;98933.34;1662856;86;25597;-61
2022/07/24 04:55:12;;;;;;;8.93;7.22;;;;;;;20.96;78.88;98935.23;1662750;86;25689;-61
2022/07/24 04:57:39;;;;;;;8.70;7.72;;;;;;;20.98;78.95;98939.81;1662757;86;25458;-61
2022/07/24 05:00:09;;;;;;;8.60;7.70;;;;;;;21.11;78.84;98942.37;1662885;86;28117;-57
2022/07/24 05:02:46;;;;;;;11.28;7.90;;;;;;;21.13;77.60;98939.41;1662905;86;25858;-58
2022/07/24 05:05:26;;;;;;;11.83;7.80;;;;;;;21.12;78.24;98941.18;1662551;86;25491;-59
2022/07/24 05:07:58;;;;;;;9.65;8.08;;;;;;;21.13;78.37;98935.84;1662044;86;25900;-58
2022/07/24 05:10:29;;;;;;;8.53;7.62;;;;;;;21.18;77.68;98939.66;1660156;86;25399;-60
2022/07/24 05:13:01;;;;;;;8.03;7.10;;;;;;;21.21;77.79;98940.91;1662231;86;26181;-59
2022/07/24 05:15:43;;;;;;;10.08;7.35;;;;;;;21.25;77.96;98940.36;1651967;86;27211;-61
2022/07/24 05:18:11;;;;;;;9.03;7.17;;;;;;;21.27;78.63;98946.36;1661044;86;25692;-61
2022/07/24 05:20:38;;;;;;;8.23;7.15;;;;;;;21.39;77.20;98957.23;1662455;86;25778;-60
2022/07/24 05:23:04;;;;;;;9.85;7.10;;;;;;;21.46;78.02;98955.72;1663396;84;25750;-61
2022/07/24 05:25:30;;;;;;;9.33;6.92;;;;;;;21.54;77.63;98953.23;1675451;84;27461;-61
2022/07/24 05:27:56;;;;;;;7.95;7.12;;;;;;;21.58;76.55;98951.28;1662873;86;25658;-61
2022/07/24 05:30:22;;;;;;;7.83;6.72;;;;;;;21.63;76.47;98962.11;1662537;86;25463;-61
2022/07/24 05:32:48;;;;;;;8.38;6.85;;;;;;;21.63;75.38;98951.53;1662442;86;25853;-61
2022/07/24 05:35:14;;;;;;;9.08;6.25;;;;;;;21.60;74.22;98957.87;1662774;86;25627;-58
2022/07/24 05:37:40;;;;;;;7.12;6.42;;;;;;;21.64;75.66;98957.30;1662420;86;27429;-60
2022/07/24 05:40:08;;;;;;;7.30;6.33;;;;;;;21.73;74.40;98954.23;1662805;86;25851;-61
2022/07/24 05:42:34;;;;;;;6.87;6.05;;;;;;;21.70;73.37;98965.55;1662720;86;25454;-62
2022/07/24 05:45:01;;;;;;;8.18;6.40;;;;;;;21.70;73.91;98961.36;1662677;86;26523;-60
2022/07/24 05:47:27;;;;;;;7.28;6.20;;;;;;;21.82;73.32;98957.55;1634341;86;25674;-56
2022/07/24 05:49:53;;;;;;;7.65;5.72;;;;;;;21.72;72.13;98956.80;1632090;87;27544;-56
2022/07/24 05:52:19;;;;;;;6.78;5.55;;;;;;;21.84;71.79;98957.17;1632282;87;25509;-56
2022/07/24 05:54:45;;;;;;;6.80;6.10;;;;;;;21.89;71.48;98955.41;1632424;87;25443;-56
2022/07/24 05:57:11;;;;;;;7.78;5.72;;;;;;;21.96;71.69;98965.84;1631965;87;25767;-57
2022/07/24 05:59:37;;;;;;;6.33;5.67;;;;;;;22.11;72.09;98957.82;1632462;87;25634;-56
2022/07/24 06:02:04;;;;;;;7.37;5.33;;;;;;;22.13;70.78;98954.03;1632562;87;28112;-56
2022/07/24 06:04:31;;;;;;;5.90;5.15;;;;;;;22.17;70.83;98950.67;1628458;86;25978;-56
2022/07/24 06:06:57;;;;;;;6.67;5.42;;;;;;;22.29;70.76;98950.18;1632001;87;25624;-56
2022/07/24 06:09:24;;;;;;;6.30;5.70;;;;;;;22.41;70.45;98954.06;1632063;87;25699;-56
2022/07/24 06:11:50;;;;;;;6.65;5.80;;;;;;;22.34;69.22;98952.62;1632097;87;25610;-56
2022/07/24 06:14:17;;;;;;;6.05;5.08;;;;;;;22.47;70.71;98955.09;1632369;87;27398;-56
2022/07/24 06:16:43;;;;;;;6.70;5.35;;;;;;;22.52;68.85;98954.15;1631930;87;25639;-56
2022/07/24 06:19:09;;;;;;;6.08;5.45;;;;;;;22.55;68.56;98959.55;1632258;87;25436;-56
2022/07/24 06:21:35;;;;;;;5.78;5.28;;;;;;;22.66;67.22;98953.48;1632309;87;25759;-56
2022/07/24 06:24:02;;;;;;;7.30;5.30;;;;;;;22.80;68.93;98961.73;1632004;87;25613;-55
2022/07/24 06:26:28;;;;;;;5.58;5.08;;;;;;;22.90;69.23;98958.78;1632134;87;27630;-56
2022/07/24 06:28:54;;;;;;;8.05;4.70;;;;;;;23.08;69.56;98954.69;1631951;87;25764;-56
2022/07/24 06:31:20;;;;;;;5.20;4.55;;;;;;;23.07;67.07;98958.68;1632410;87;25715;-57
2022/07/24 06:33:46;;;;;;;9.55;4.40;;;;;;;23.11;66.54;98958.09;1632179;87;26361;-56
2022/07/24 06:36:13;;;;;;;5.97;4.60;;;;;;;23.18;65.62;98962.92;1632697;87;25472;-56
2022/07/24 06:38:39;;;;;;;4.58;4.17;;;;;;;23.38;64.74;98962.05;1632752;87;27446;-57
2022/07/24 06:41:05;;;;;;;5.35;4.65;;;;;;;23.37;65.13;98962.41;1632723;87;25736;-57
2022/07/24 06:43:31;;;;;;;5.00;4.60;;;;;;;23.45;64.37;98962.66;1632572;87;25530;-56
2022/07/24 06:45:58;;;;;;;4.90;4.40;;;;;;;23.51;64.75;98967.26;1636615;86;26557;-57
2022/07/24 06:48:23;;;;;;;6.25;4.70;;;;;;;23.59;65.50;98968.89;1655718;86;25618;-57
2022/07/24 06:50:49;;;;;;;6.60;4.10;;;;;;;23.71;65.11;98965.54;1655321;86;29608;-56
2022/07/24 06:53:16;;;;;;;4.90;4.30;;;;;;;23.92;62.12;98954.36;1655165;86;25601;-57
2022/07/24 06:55:42;;;;;;;4.40;4.00;;;;;;;23.78;62.57;98961.35;1655332;86;25656;-59
2022/07/24 06:58:08;;;;;;;4.33;3.92;;;;;;;23.98;61.83;98958.18;1654947;86;25693;-57
2022/07/24 07:00:35;;;;;;;5.22;4.40;;;;;;;24.18;61.91;98955.83;1652800;86;26327;-60
2022/07/24 07:03:01;;;;;;;5.95;4.00;;;;;;;24.22;59.83;98963.63;1655247;86;27531;-60
2022/07/24 07:05:27;;;;;;;6.10;4.40;;;;;;;24.18;58.06;98964.23;1655131;86;25759;-60
2022/07/24 07:07:53;;;;;;;4.62;3.87;;;;;;;24.20;58.33;98958.23;1655589;86;25666;-57
2022/07/24 07:10:19;;;;;;;4.35;3.72;;;;;;;24.27;57.16;98956.20;1655500;86;25922;-57
2022/07/24 07:12:46;;;;;;;4.50;4.10;;;;;;;24.39;59.39;98960.62;1655281;86;25690;-62
2022/07/24 07:15:13;;;;;;;4.25;3.85;;;;;;;24.73;58.74;98959.98;1655139;86;27432;-59
2022/07/24 07:17:41;;;;;;;5.33;4.15;;;;;;;24.88;59.53;98960.17;1655260;86;25680;-57
2022/07/24 07:20:11;;;;;;;5.33;3.77;;;;;;;24.99;57.40;98960.16;1655480;86;25778;-56
2022/07/24 07:22:37;;;;;;;5.40;4.03;;;;;;;25.09;55.88;98963.30;1655660;86;25928;-57
2022/07/24 07:25:06;;;;;;;5.00;4.10;;;;;;;25.04;55.12;98954.73;1655232;86;25439;-57
2022/07/24 07:27:32;;;;;;;6.20;4.25;;;;;;;25.06;55.94;98964.33;1655530;86;27646;-56
2022/07/24 07:29:58;;;;;;;4.53;3.70;;;;;;;25.24;54.49;98962.67;1655130;86;25684;-56
2022/07/24 07:32:25;;;;;;;4.15;3.75;;;;;;;25.34;56.27;98961.01;1655576;86;25590;-56
2022/07/24 07:34:51;;;;;;;3.98;3.58;;;;;;;25.47;55.52;98963.55;1655489;86;25837;-57
2022/07/24 07:37:17;;;;;;;4.67;3.50;;;;;;;25.81;55.95;98964.99;1655577;86;25702;-57
2022/07/24 07:39:43;;;;;;;3.45;3.15;;;;;;;26.08;53.22;98961.62;1655445;86;27362;-57
2022/07/24 07:42:09;;;;;;;4.15;3.52;;;;;;;26.14;53.20;98964.15;1655428;86;25839;-57
2022/07/24 07:44:35;;;;;;;4.03;3.50;;;;;;;26.22;51.04;98964.89;1655532;86;25585;-57
2022/07/24 07:47:03;;;;;;;5.50;3.30;;;;;;;26.28;51.72;98969.48;1655249;86;25924;-57
2022/07/24 07:49:30;;;;;;;3.87;3.25;;;;;;;26.53;49.12;98971.28;1655433;86;25464;-57
2022/07/24 07:51:56;;;;;;;3.75;3.45;;;;;;;26.74;50.02;98968.87;1655393;86;27501;-57
2022/07/24 07:54:23;;;;;;;3.50;3.20;;;;;;;26.75;50.45;98971.89;1651512;86;25686;-57
2022/07/24 07:56:50;;;;;;;3.65;3.33;;;;;;;27.10;50.07;98969.12;1655683;86;25550;-57
2022/07/24 07:59:17;;;;;;;4.22;3.83;;;;;;;27.33;49.78;98969.05;1655536;86;25732;-61
2022/07/24 08:01:44;;;;;;;4.53;3.52;;;;;;;27.18;48.06;98973.46;1655365;86;25529;-58
2022/07/24 08:04:10;;;;;;;4.65;3.72;;;;;;;27.20;47.89;98975.83;1655562;86;27591;-62
2022/07/24 08:06:37;;;;;;;3.87;3.55;;;;;;;27.47;46.81;98977.11;1655362;86;25763;-63
2022/07/24 08:09:04;;;;;;;4.05;3.37;;;;;;;27.56;46.60;98977.39;1655398;86;25507;-61
2022/07/24 08:11:30;;;;;;;4.70;4.03;;;;;;;27.81;46.85;98974.88;1655529;86;25727;-60
2022/07/24 08:13:56;;;;;;;4.62;3.40;;;;;;;27.99;45.63;98974.61;1655812;86;25674;-62
2022/07/24 08:16:23;;;;;;;5.08;3.65;;;;;;;28.19;46.21;98968.27;1655459;86;27594;-58
2022/07/24 08:18:50;;;;;;;6.55;3.42;;;;;;;28.35;44.74;98973.24;1655696;86;25862;-59
2022/07/24 08:21:18;;;;;;;4.75;3.80;;;;;;;28.48;42.40;98976.86;1655518;86;25428;-64
2022/07/24 08:23:46;;;;;;;4.50;4.10;;;;;;;28.48;43.12;98972.63;1655512;86;25913;-63
2022/07/24 08:26:13;;;;;;;4.25;3.65;;;;;;;28.38;40.73;98978.02;1655639;86;25715;-65
2022/07/24 08:28:39;;;;;;;5.78;3.80;;;;;;;28.29;42.00;98973.52;1655906;86;26855;-60
2022/07/24 08:31:07;;;;;;;5.90;4.17;;;;;;;28.09;42.42;98968.60;1655334;86;25617;-62
2022/07/24 08:33:33;;;;;;;4.83;4.00;;;;;;;28.13;42.58;98973.59;1655573;86;25432;-63
2022/07/24 08:36:00;;;;;;;4.65;3.75;;;;;;;28.25;42.06;98975.00;1655545;86;25719;-64
2022/07/24 08:38:27;;;;;;;3.98;3.62;;;;;;;28.10;39.61;98970.22;1655387;86;26353;-65
2022/07/24 08:40:53;;;;;;;3.90;3.47;;;;;;;28.12;40.97;98980.42;1655559;86;27694;-63
2022/07/24 08:43:20;;;;;;;3.90;3.50;;;;;;;28.42;42.21;98978.78;1655480;86;25494;-64
2022/07/24 08:45:48;;;;;;;4.60;3.80;;;;;;;28.73;42.28;98975.62;1655589;86;25446;-57
2022/07/24 08:48:15;;;;;;;4.37;3.33;;;;;;;29.00;40.90;98974.13;1655277;86;25736;-57
2022/07/24 08:50:43;;;;;;;4.00;3.60;;;;;;;29.19;40.09;98977.40;1651959;86;25869;-56
2022/07/24 08:53:10;;;;;;;4.00;3.02;;;;;;;29.43;38.79;98978.71;1655388;86;27424;-57
2022/07/24 08:55:38;;;;;;;3.92;3.62;;;;;;;29.58;39.10;98974.98;1655345;86;25771;-57
2022/07/24 08:58:05;;;;;;;4.95;3.20;;;;;;;29.81;37.83;98974.68;1655485;86;25455;-58
2022/07/24 09:00:33;;;;;;;4.20;3.00;;;;;;;29.61;38.58;98978.95;1655384;86;25805;-57
2022/07/24 09:02:59;;;;;;;3.98;3.45;;;;;;;29.75;38.72;98979.25;1655595;86;25614;-58
2022/07/24 09:05:26;;;;;;;4.17;2.90;;;;;;;29.86;38.42;98973.36;1655459;86;27391;-57
2022/07/24 09:08:11;;;;;;;3.20;2.83;;;;;;;30.26;36.33;98980.32;1655063;86;25705;-57
2022/07/24 09:10:39;;;;;;;3.98;3.67;;;;;;;30.36;36.59;98974.84;1655015;86;25699;-57
2022/07/24 09:13:16;;;;;;;4.35;3.45;;;;;;;30.52;35.40;98974.83;1655302;86;27067;-57
2022/07/24 09:15:49;;;;;;;4.72;3.65;;;;;;;30.52;36.94;98975.44;1655595;86;25680;-57
2022/07/24 09:18:28;;;;;;;3.83;3.50;;;;;;;30.36;37.51;98977.67;1655548;86;28262;-57
2022/07/24 09:20:56;;;;;;;4.12;3.60;;;;;;;30.76;38.11;98973.17;1655710;86;25661;-57
2022/07/24 09:23:23;;;;;;;4.17;3.60;;;;;;;30.96;37.90;98977.12;1655370;86;25513;-60
2022/07/24 09:25:54;;;;;;;3.50;3.20;;;;;;;31.03;39.05;98972.05;1655353;86;25862;-63
2022/07/24 09:28:22;;;;;;;3.90;3.50;;;;;;;31.29;39.46;98972.13;1655567;86;25608;-65
2022/07/24 09:30:49;;;;;;;5.58;3.50;;;;;;;31.47;38.23;98978.53;1636548;86;27486;-57
2022/07/24 09:33:21;;;;;;;4.08;3.70;;;;;;;31.65;36.92;98977.99;1655422;86;25459;-57
2022/07/24 09:35:51;;;;;;;3.75;3.45;;;;;;;31.61;37.80;98983.78;1655274;86;25483;-57
2022/07/24 09:38:20;;;;;;;3.62;3.33;;;;;;;31.64;37.39;98981.47;1655524;86;25683;-61
2022/07/24 09:40:53;;;;;;;4.12;3.62;;;;;;;31.56;35.64;98985.75;1655735;86;25501;-59
2022/07/24 09:43:30;;;;;;;6.33;3.83;;;;;;;31.64;36.72;98977.83;1655295;86;27351;-60
2022/07/24 09:46:06;;;;;;;4.00;3.50;;;;;;;32.00;38.70;98985.23;1655447;86;25708;-64
2022/07/24 09:48:57;;;;;;;3.50;3.20;;;;;;;31.97;37.92;98983.30;1655200;84;25443;-62
2022/07/24 09:51:22;;;;;;;3.62;3.25;;;;;;;32.08;35.62;98986.41;1654581;86;25507;-62
2022/07/24 09:53:55;;;;;;;3.47;3.17;;;;;;;32.53;34.57;98977.47;1652157;86;25468;-58
2022/07/24 09:56:23;;;;;;;3.37;3.08;;;;;;;32.84;34.55;98971.09;1656022;86;27438;-65
2022/07/24 09:58:58;;;;;;;3.52;2.80;;;;;;;32.95;34.73;98974.20;1655337;86;25687;-63
2022/07/24 10:01:27;;;;;;;3.12;2.83;;;;;;;33.02;33.71;98972.51;1655245;86;25769;-59
2022/07/24 10:03:56;;;;;;;3.43;3.13;;;;;;;33.12;33.29;98973.38;1655805;86;26681;-60
2022/07/24 10:06:25;;;;;;;3.20;3.00;;;;;;;33.19;31.24;98970.30;1655742;86;25779;-60
2022/07/24 10:08:53;;;;;;;3.27;2.95;;;;;;;33.17;32.00;98965.70;1655637;84;27609;-58
2022/07/24 10:11:21;;;;;;;3.37;3.08;;;;;;;33.46;32.71;98974.55;1670779;84;25416;-63
2022/07/24 10:13:49;;;;;;;3.22;2.92;;;;;;;33.42;31.23;98958.28;1670348;84;25733;-57
2022/07/24 10:16:30;;;;;;;5.58;3.10;;;;;;;33.28;32.14;98962.45;1655131;84;25701;-58
2022/07/24 10:19:06;;;;;;;3.15;2.90;;;;;;;32.98;32.56;98957.02;1663367;84;25455;-59
2022/07/24 10:21:37;;;;;;;2.90;2.70;;;;;;;32.53;32.81;98964.06;1660113;84;27484;-58
2022/07/24 10:24:18;;;;;;;2.90;2.60;;;;;;;32.43;33.04;98960.33;1666747;84;25786;-58
2022/07/24 10:26:49;;;;;;;3.12;2.90;;;;;;;32.84;33.38;98956.91;1655980;84;25793;-58
2022/07/24 10:29:19;;;;;;;3.27;2.90;;;;;;;33.42;33.56;98955.45;1654958;86;25713;-58
2022/07/24 10:31:54;;;;;;;4.70;3.10;;;;;;;33.77;33.42;98954.52;1655417;86;25470;-58
2022/07/24 10:34:53;;;;;;;3.77;3.05;;;;;;;34.16;32.03;98954.98;1655145;86;27372;-56
2022/07/24 10:37:43;;;;;;;3.92;3.15;;;;;;;33.66;31.09;98960.62;1654872;86;25608;-55
2022/07/24 10:40:41;;;;;;;3.40;3.10;;;;;;;33.49;31.87;98959.42;1645608;86;25853;-56
2022/07/24 10:43:12;;;;;;;3.05;2.80;;;;;;;33.63;32.49;98958.72;1655218;86;25908;-55
2022/07/24 10:45:46;;;;;;;2.95;2.72;;;;;;;34.00;31.46;98952.39;1655463;86;25657;-57
2022/07/24 10:48:27;;;;;;;2.90;2.60;;;;;;;34.23;29.25;98951.06;1652578;86;27461;-62
2022/07/24 10:51:16;;;;;;;3.47;2.92;;;;;;;34.15;29.38;98942.66;1647144;86;25695;-63
2022/07/24 10:53:51;;;;;;;2.80;2.60;;;;;;;34.36;28.81;98948.72;1663787;84;25753;-60
2022/07/24 10:56:36;;;;;;;3.45;2.70;;;;;;;34.33;28.00;98946.16;1660830;84;25794;-58
2022/07/24 10:59:13;;;;;;;3.77;3.20;;;;;;;34.53;28.04;98947.14;1655309;86;25665;-56
2022/07/24 11:01:47;;;;;;;4.30;3.08;;;;;;;34.50;29.20;98948.70;1655227;86;27400;-57
2022/07/24 11:04:25;;;;;;;3.70;3.40;;;;;;;34.58;28.91;98937.18;1655397;86;25601;-56
2022/07/24 11:07:12;;;;;;;3.20;2.90;;;;;;;34.61;29.02;98941.13;1655772;86;25682;-56
2022/07/24 11:10:01;;;;;;;3.45;3.25;;;;;;;34.62;27.66;98945.57;1655469;86;26569;-56
2022/07/24 11:12:32;;;;;;;3.55;3.25;;;;;;;33.86;29.21;98944.61;1655169;86;25700;-56
2022/07/24 11:17:44;;;;;;;3.20;2.90;;;;;;;34.26;28.49;98946.47;1582679;89;25758;-59
2022/07/24 11:20:14;;;;;;;3.02;2.75;;;;;;;34.39;28.51;98949.19;1586123;88;25848;-61
2022/07/24 11:22:51;;;;;;;2.87;2.60;;;;;;;34.23;27.29;98945.99;1596285;88;25816;-60
2022/07/24 11:25:26;;;;;;;2.98;2.77;;;;;;;34.16;28.22;98939.34;1606505;89;25792;-59
2022/07/24 11:27:59;;;;;;;3.42;3.12;;;;;;;34.04;27.96;98939.61;1607558;89;27386;-60
2022/07/24 11:30:29;;;;;;;2.77;2.58;;;;;;;34.09;27.55;98935.36;1586288;89;25700;-63
2022/07/24 11:32:57;;;;;;;2.90;2.60;;;;;;;34.74;27.87;98939.59;1607596;89;25719;-58
2022/07/24 11:35:33;;;;;;;2.98;2.67;;;;;;;35.00;26.46;98924.36;1607401;89;25722;-60